Terminal Aerodrome Forecast
Issued by NWS

Home | Current Version | Previous Version | Text Only | Print | Product List | Glossary On
Versions: 1 2 3 4 5 6 7 8 9 10 11 12
000
FTUS41 KBTV 291739
TAFPBG
TAF
KPBG 291739Z 2918/3018 18010KT P6SM VCSH SCT070
      TEMPO 2918/2921 4SM -TSRA BKN060CB
     FM292100 17009KT P6SM VCSH BKN070
     FM300000 18011G20KT P6SM BKN080
     FM300600 17007KT P6SM VCSH OVC070
     FM301200 VRB03KT P6SM BKN090=

USA.gov is the U.S. government's official web portal to all federal, state and local government web resources and services.